Wedgeport, Canada
Current Conditions -  °F | °C
As of 3:00 PM on Tuesday 21 Oct 2014 (Local Time) from CYQI Reporting Station
Overcast Overcast  
Wind Chill: 57°   Ceiling: 10000
Heat Index: 57°   Visibility: 15mi
Dew Point: 48°   Wind: 7mph
Humidity: 72%   Direction: 160°SSE
Pressure: 30.11"   Gusts: NA
Location:  43.73°N, 65.98°W
Report Text: CYQI 211800Z 16006KT 15SM FEW025 FEW070 BKN100 OVC250 14/09 A3011 RMK SC1AC2AC5CI1 SC TR SLP198
Loading
Personal Weather Stations






























Interactive Weather Map
Tropical Storm Tracking
New forecast layout! Learn more

10-Day Weather Forecast

Advertisements
Track Severe Weather on mobile